Maersk Drummond — A8JF3 — position and weather

sailwx.info

Track history (hours):
 
Tides and Currents Weather Stations Pressure Air Temp Water Temp Dewpoint Dewpoint Depression Visibility Wind Speed Wind Dir Waves Ship Positions

Maersk Drummond

Last reported at 2014-Oct-01 07:33 UTC. Time now 2014-Oct-01 08:17 UTC.
Position N 39°27' W 000°19'.

Length 294 m; draft 10 m.

Type: Ship (hazmat cat A). MMSI: 636091082.

Date/timePositionNaut miles runAvg speedWind from/ knotsBaromVisibWave heightAir tempDewpointWater temp
2014-Oct-01 07:33N 39°27' W 000°19'0 0.0
2014-Oct-01 06:33N 39°27' W 000°19'0 0.0
2014-Oct-01 05:33N 39°27' W 000°19'0 0.0
2014-Oct-01 04:33N 39°27' W 000°19'0 0.0
2014-Oct-01 03:33N 39°27' W 000°19'0 0.0
2014-Oct-01 02:33N 39°27' W 000°19'0 0.0
2014-Oct-01 01:33N 39°27' W 000°19'0 0.0
2014-Oct-01 00:33N 39°27' W 000°19'0 0.0
2014-Sep-30 23:33N 39°27' W 000°19'0 0.0
2014-Sep-30 22:33N 39°27' W 000°19'2 1.7
2014-Sep-30 21:33N 39°26' W 000°17'4 3.9
2014-Sep-30 20:30N 39°26' W 000°12'8 1.3
2014-Sep-30 14:20N 39°29' W 000°03'39 9.9
2014-Sep-30 10:21N 39°46' E 000°43'1011.6
2014-Sep-30 09:31N 39°53' E 000°52'1212.3
2014-Sep-30 08:33N 40°02' E 001°01'1212.2
2014-Sep-30 07:33N 40°12' E 001°11'1212.1
2014-Sep-30 06:33N 40°22' E 001°21'1212.1
2014-Sep-30 05:33N 40°32' E 001°30'1212.1
2014-Sep-30 04:33N 40°42' E 001°39'1211.9
2014-Sep-30 03:32N 40°52' E 001°48'1211.9
2014-Sep-30 02:33N 41°01' E 001°57'1211.9
2014-Sep-30 01:33N 41°11' E 002°05'1010.1
2014-Sep-30 00:33N 41°21' E 002°10'1 0.2
2014-Sep-29 22:15N 41°21' E 002°10'0 0.0
2014-Sep-29 20:30N 41°21' E 002°10'0 0.0
2014-Sep-29 19:27N 41°21' E 002°10'0 0.0
2014-Sep-29 17:33N 41°21' E 002°10'0 0.4
2014-Sep-29 16:32N 41°21' E 002°10'5 5.1
2014-Sep-29 15:33N 41°18' E 002°16'1313.2
2014-Sep-29 14:33N 41°23' E 002°32'1212.4
2014-Sep-29 13:34N 41°29' E 002°46'1514.8
2014-Sep-29 12:33N 41°35' E 003°05'1616.2
2014-Sep-29 11:32N 41°42' E 003°24'1613.9
2014-Sep-29 10:23N 41°49' E 003°44'1615.5
2014-Sep-29 09:22N 41°56' E 004°03'1313.5
2014-Sep-29 08:25N 42°02' E 004°18'1513.5
2014-Sep-29 07:18N 42°08' E 004°37'2025.8
2014-Sep-29 06:33N 42°16' E 005°00'9 7.8
2014-Sep-29 05:21N 42°21' E 005°12'1113.6
2014-Sep-29 04:32N 42°25' E 005°26'1614.0
2014-Sep-29 03:25N 42°32' E 005°45'1213.8
2014-Sep-29 02:31N 42°37' E 005°60'1414.5
2014-Sep-29 01:33N 42°43' E 006°17'1514.8
2014-Sep-29 00:33N 42°50' E 006°35'1514.8
2014-Sep-28 23:33N 42°59' E 006°51'1414.4
2014-Sep-28 22:33N 43°07' E 007°08'1414.1
2014-Sep-28 21:33N 43°15' E 007°24'1413.8
2014-Sep-28 20:33N 43°22' E 007°39'1813.9
2014-Sep-28 19:15N 43°33' E 007°60'913.7
2014-Sep-28 18:33N 43°38' E 008°10'1413.9
2014-Sep-28 17:33N 43°50' E 008°20'1414.4
2014-Sep-28 16:33N 44°03' E 008°30'1414.4
2014-Sep-28 15:34N 44°15' E 008°40'1110.8
2014-Sep-28 14:33N 44°25' E 008°47'0 0.2
2014-Sep-28 13:32N 44°25' E 008°47'0 0.0
2014-Sep-28 12:32N 44°25' E 008°47'0 0.0
2014-Sep-28 11:32N 44°25' E 008°47'0 0.0
2014-Sep-28 10:29N 44°25' E 008°47'0 0.0
2014-Sep-28 09:29N 44°25' E 008°47'0 0.0
2014-Sep-28 08:32N 44°25' E 008°47'0 0.0
2014-Sep-28 07:32N 44°25' E 008°47'0 0.0
2014-Sep-28 06:29N 44°25' E 008°47'0 0.0
2014-Sep-28 05:32N 44°25' E 008°47'0 0.0
2014-Sep-28 04:29N 44°25' E 008°47'0 0.0
2014-Sep-28 03:32N 44°25' E 008°47'0 0.0
2014-Sep-28 02:32N 44°25' E 008°47'0 0.0
2014-Sep-28 01:32N 44°25' E 008°47'0 0.0
2014-Sep-28 00:32N 44°25' E 008°47'0 0.0
2014-Sep-27 23:23N 44°25' E 008°47'0 0.0
2014-Sep-27 22:32N 44°25' E 008°47'0 0.0
2014-Sep-27 21:32N 44°25' E 008°47'0 0.0
2014-Sep-27 20:32N 44°25' E 008°47'0 0.0
2014-Sep-27 19:32N 44°25' E 008°47'0 0.0
2014-Sep-27 18:32N 44°25' E 008°47'0 0.0
2014-Sep-27 17:32N 44°25' E 008°47'0 0.0
2014-Sep-27 16:29N 44°25' E 008°47'0 0.2
2014-Sep-27 15:34N 44°25' E 008°47'4 3.8
2014-Sep-27 14:33N 44°22' E 008°43'1111.3
2014-Sep-27 13:34N 44°14' E 008°53'1211.9
2014-Sep-27 12:33N 44°04' E 009°04'1211.6
2014-Sep-27 11:34N 43°56' E 009°14'1212.1
2014-Sep-27 10:34N 43°49' E 009°28'1212.4
2014-Sep-27 09:34N 43°41' E 009°42'1212.4
2014-Sep-27 08:34N 43°34' E 009°55'1211.6
2014-Sep-27 07:34N 43°31' E 010°11'6 6.4
2014-Sep-27 06:33N 43°34' E 010°18'0 0.1
2014-Sep-27 05:33N 43°34' E 010°18'0 0.0
2014-Sep-27 04:33N 43°34' E 010°18'0 0.0
2014-Sep-27 03:33N 43°34' E 010°18'0 0.0
2014-Sep-27 02:27N 43°34' E 010°18'0 0.0
2014-Sep-27 01:33N 43°34' E 010°18'0 0.0
2014-Sep-27 00:33N 43°34' E 010°18'0 0.0
2014-Sep-26 23:30N 43°34' E 010°18'0 0.0
2014-Sep-26 22:33N 43°34' E 010°18'0 0.0
2014-Sep-26 21:33N 43°34' E 010°18'0 0.0
2014-Sep-26 20:33N 43°34' E 010°18'0 0.0
2014-Sep-26 19:33N 43°34' E 010°18'0 0.0
2014-Sep-26 18:33N 43°34' E 010°18'0 0.0
2014-Sep-26 17:33N 43°34' E 010°18'0 0.0
2014-Sep-26 16:33N 43°34' E 010°18'0 0.0
2014-Sep-26 15:33N 43°34' E 010°18'0 0.0
2014-Sep-26 14:33N 43°34' E 010°18'0 0.0
2014-Sep-26 13:33N 43°34' E 010°18'0 0.0
2014-Sep-26 12:33N 43°34' E 010°18'0 0.0
2014-Sep-26 11:33N 43°34' E 010°18'0 0.0
2014-Sep-26 10:33N 43°34' E 010°18'0 0.0
2014-Sep-26 09:33N 43°34' E 010°18'0 0.0
2014-Sep-26 08:33N 43°34' E 010°18'0 0.0
2014-Sep-26 07:33N 43°34' E 010°18'0 0.0
2014-Sep-26 06:33N 43°34' E 010°18'0 0.0
2014-Sep-26 05:33N 43°34' E 010°18'3 3.4
2014-Sep-26 04:33N 43°32' E 010°16'4 4.0
2014-Sep-26 03:33N 43°28' E 010°13'1313.2
2014-Sep-26 02:33N 43°15' E 010°09'1414.3
2014-Sep-26 01:33N 43°01' E 010°06'  
2014-Sep-23 10:17N 39°04' E 009°48'811.2
2014-Sep-23 09:33N 39°01' E 009°39'1110.7
2014-Sep-23 08:33N 39°01' E 009°25'1211.9
2014-Sep-23 07:34N 39°06' E 009°11'8 8.4
2014-Sep-23 06:33N 39°13' E 009°04'0 0.0
2014-Sep-23 05:33N 39°13' E 009°04'0 0.0
2014-Sep-23 04:33N 39°13' E 009°04'0 0.0
2014-Sep-23 03:33N 39°13' E 009°04'0 0.0
2014-Sep-23 02:33N 39°13' E 009°04'0 0.0
2014-Sep-23 01:33N 39°13' E 009°04'0 0.0
2014-Sep-23 00:33N 39°13' E 009°04'0 0.0
2014-Sep-22 23:33N 39°13' E 009°04'0 0.0
2014-Sep-22 22:33N 39°13' E 009°04'0 0.0
2014-Sep-22 21:33N 39°13' E 009°04'0 0.0
2014-Sep-22 20:33N 39°13' E 009°04'0 0.0
2014-Sep-22 19:33N 39°13' E 009°04'0 0.0
2014-Sep-22 18:33N 39°13' E 009°04'0 0.0
2014-Sep-22 17:33N 39°13' E 009°04'0 0.0
2014-Sep-22 16:33N 39°13' E 009°04'0 0.0
2014-Sep-22 15:33N 39°13' E 009°04'0 0.0
2014-Sep-22 14:30N 39°13' E 009°04'0 0.0
2014-Sep-22 13:33N 39°13' E 009°04'0 0.0
2014-Sep-22 12:33N 39°13' E 009°04'0 0.0
2014-Sep-22 11:33N 39°13' E 009°04'0 0.0
2014-Sep-22 10:33N 39°13' E 009°04'0 0.0
2014-Sep-22 09:33N 39°13' E 009°04'0 0.0
2014-Sep-22 08:33N 39°13' E 009°04'0 0.0
2014-Sep-22 07:33N 39°13' E 009°04'0 0.0
2014-Sep-22 06:33N 39°13' E 009°04'0 0.0
2014-Sep-22 05:33N 39°13' E 009°04'0 0.3
2014-Sep-22 04:33N 39°13' E 009°04'8 7.7
2014-Sep-22 03:34N 39°05' E 009°07'1413.9
2014-Sep-22 02:33N 38°53' E 008°60'1514.8
2014-Sep-22 01:33N 38°49' E 008°41'1514.4
2014-Sep-22 00:29N 38°45' E 008°23'1414.2
2014-Sep-21 23:32N 38°41' E 008°06'2814.2
2014-Sep-21 21:32N 38°33' E 007°31'7614.4
2014-Sep-21 16:13N 38°12' E 005°57'1014.3
2014-Sep-21 15:33N 38°10' E 005°46'1414.4
2014-Sep-21 14:33N 38°06' E 005°28'2114.8
2014-Sep-21 13:10N 38°01' E 005°03'1014.9
2014-Sep-21 12:29N 37°58' E 004°50'1414.9
2014-Sep-21 11:33N 37°53' E 004°34'1514.6
2014-Sep-21 10:33N 37°49' E 004°16'1714.8
2014-Sep-21 09:25N 37°45' E 003°55'1314.8
2014-Sep-21 08:33N 37°41' E 003°40'1514.7
2014-Sep-21 07:33N 37°37' E 003°22'  
Track history (hours):
 
Tides and Currents Weather Stations Pressure Air Temp Water Temp Dewpoint Dewpoint Depression Visibility Wind Speed Wind Dir Waves Ship Positions

Maersk Drummond

Last reported at 2014-Oct-01 07:33 UTC. Time now 2014-Oct-01 08:17 UTC.
Position N 39°27' W 000°19'.

Length 294 m; draft 10 m.

Type: Ship (hazmat cat A). MMSI: 636091082.

Date/timePositionNaut miles runAvg speedWind from/ knotsBaromVisibWave heightAir tempDewpointWater temp
2014-Oct-01 07:33N 39°27' W 000°19'0 0.0
2014-Oct-01 06:33N 39°27' W 000°19'0 0.0
2014-Oct-01 05:33N 39°27' W 000°19'0 0.0
2014-Oct-01 04:33N 39°27' W 000°19'0 0.0
2014-Oct-01 03:33N 39°27' W 000°19'0 0.0
2014-Oct-01 02:33N 39°27' W 000°19'0 0.0
2014-Oct-01 01:33N 39°27' W 000°19'0 0.0
2014-Oct-01 00:33N 39°27' W 000°19'0 0.0
2014-Sep-30 23:33N 39°27' W 000°19'0 0.0
2014-Sep-30 22:33N 39°27' W 000°19'2 1.7
2014-Sep-30 21:33N 39°26' W 000°17'4 3.9
2014-Sep-30 20:30N 39°26' W 000°12'8 1.3
2014-Sep-30 14:20N 39°29' W 000°03'39 9.9
2014-Sep-30 10:21N 39°46' E 000°43'1011.6
2014-Sep-30 09:31N 39°53' E 000°52'1212.3
2014-Sep-30 08:33N 40°02' E 001°01'1212.2
2014-Sep-30 07:33N 40°12' E 001°11'1212.1
2014-Sep-30 06:33N 40°22' E 001°21'1212.1
2014-Sep-30 05:33N 40°32' E 001°30'1212.1
2014-Sep-30 04:33N 40°42' E 001°39'1211.9
2014-Sep-30 03:32N 40°52' E 001°48'1211.9
2014-Sep-30 02:33N 41°01' E 001°57'1211.9
2014-Sep-30 01:33N 41°11' E 002°05'1010.1
2014-Sep-30 00:33N 41°21' E 002°10'1 0.2
2014-Sep-29 22:15N 41°21' E 002°10'0 0.0
2014-Sep-29 20:30N 41°21' E 002°10'0 0.0
2014-Sep-29 19:27N 41°21' E 002°10'0 0.0
2014-Sep-29 17:33N 41°21' E 002°10'0 0.4
2014-Sep-29 16:32N 41°21' E 002°10'5 5.1
2014-Sep-29 15:33N 41°18' E 002°16'1313.2
2014-Sep-29 14:33N 41°23' E 002°32'1212.4
2014-Sep-29 13:34N 41°29' E 002°46'1514.8
2014-Sep-29 12:33N 41°35' E 003°05'1616.2
2014-Sep-29 11:32N 41°42' E 003°24'1613.9
2014-Sep-29 10:23N 41°49' E 003°44'1615.5
2014-Sep-29 09:22N 41°56' E 004°03'1313.5
2014-Sep-29 08:25N 42°02' E 004°18'1513.5
2014-Sep-29 07:18N 42°08' E 004°37'2025.8
2014-Sep-29 06:33N 42°16' E 005°00'9 7.8
2014-Sep-29 05:21N 42°21' E 005°12'1113.6
2014-Sep-29 04:32N 42°25' E 005°26'1614.0
2014-Sep-29 03:25N 42°32' E 005°45'1213.8
2014-Sep-29 02:31N 42°37' E 005°60'1414.5
2014-Sep-29 01:33N 42°43' E 006°17'1514.8
2014-Sep-29 00:33N 42°50' E 006°35'1514.8
2014-Sep-28 23:33N 42°59' E 006°51'1414.4
2014-Sep-28 22:33N 43°07' E 007°08'1414.1
2014-Sep-28 21:33N 43°15' E 007°24'1413.8
2014-Sep-28 20:33N 43°22' E 007°39'1813.9
2014-Sep-28 19:15N 43°33' E 007°60'913.7
2014-Sep-28 18:33N 43°38' E 008°10'1413.9
2014-Sep-28 17:33N 43°50' E 008°20'1414.4
2014-Sep-28 16:33N 44°03' E 008°30'1414.4
2014-Sep-28 15:34N 44°15' E 008°40'1110.8
2014-Sep-28 14:33N 44°25' E 008°47'0 0.2
2014-Sep-28 13:32N 44°25' E 008°47'0 0.0
2014-Sep-28 12:32N 44°25' E 008°47'0 0.0
2014-Sep-28 11:32N 44°25' E 008°47'0 0.0
2014-Sep-28 10:29N 44°25' E 008°47'0 0.0
2014-Sep-28 09:29N 44°25' E 008°47'0 0.0
2014-Sep-28 08:32N 44°25' E 008°47'0 0.0
2014-Sep-28 07:32N 44°25' E 008°47'0 0.0
2014-Sep-28 06:29N 44°25' E 008°47'0 0.0
2014-Sep-28 05:32N 44°25' E 008°47'0 0.0
2014-Sep-28 04:29N 44°25' E 008°47'0 0.0
2014-Sep-28 03:32N 44°25' E 008°47'0 0.0
2014-Sep-28 02:32N 44°25' E 008°47'0 0.0
2014-Sep-28 01:32N 44°25' E 008°47'0 0.0
2014-Sep-28 00:32N 44°25' E 008°47'0 0.0
2014-Sep-27 23:23N 44°25' E 008°47'0 0.0
2014-Sep-27 22:32N 44°25' E 008°47'0 0.0
2014-Sep-27 21:32N 44°25' E 008°47'0 0.0
2014-Sep-27 20:32N 44°25' E 008°47'0 0.0
2014-Sep-27 19:32N 44°25' E 008°47'0 0.0
2014-Sep-27 18:32N 44°25' E 008°47'0 0.0
2014-Sep-27 17:32N 44°25' E 008°47'0 0.0
2014-Sep-27 16:29N 44°25' E 008°47'0 0.2
2014-Sep-27 15:34N 44°25' E 008°47'4 3.8
2014-Sep-27 14:33N 44°22' E 008°43'1111.3
2014-Sep-27 13:34N 44°14' E 008°53'1211.9
2014-Sep-27 12:33N 44°04' E 009°04'1211.6
2014-Sep-27 11:34N 43°56' E 009°14'1212.1
2014-Sep-27 10:34N 43°49' E 009°28'1212.4
2014-Sep-27 09:34N 43°41' E 009°42'1212.4
2014-Sep-27 08:34N 43°34' E 009°55'1211.6
2014-Sep-27 07:34N 43°31' E 010°11'6 6.4
2014-Sep-27 06:33N 43°34' E 010°18'0 0.1
2014-Sep-27 05:33N 43°34' E 010°18'0 0.0
2014-Sep-27 04:33N 43°34' E 010°18'0 0.0
2014-Sep-27 03:33N 43°34' E 010°18'0 0.0
2014-Sep-27 02:27N 43°34' E 010°18'0 0.0
2014-Sep-27 01:33N 43°34' E 010°18'0 0.0
2014-Sep-27 00:33N 43°34' E 010°18'0 0.0
2014-Sep-26 23:30N 43°34' E 010°18'0 0.0
2014-Sep-26 22:33N 43°34' E 010°18'0 0.0
2014-Sep-26 21:33N 43°34' E 010°18'0 0.0
2014-Sep-26 20:33N 43°34' E 010°18'0 0.0
2014-Sep-26 19:33N 43°34' E 010°18'0 0.0
2014-Sep-26 18:33N 43°34' E 010°18'0 0.0
2014-Sep-26 17:33N 43°34' E 010°18'0 0.0
2014-Sep-26 16:33N 43°34' E 010°18'0 0.0
2014-Sep-26 15:33N 43°34' E 010°18'0 0.0
2014-Sep-26 14:33N 43°34' E 010°18'0 0.0
2014-Sep-26 13:33N 43°34' E 010°18'0 0.0
2014-Sep-26 12:33N 43°34' E 010°18'0 0.0
2014-Sep-26 11:33N 43°34' E 010°18'0 0.0
2014-Sep-26 10:33N 43°34' E 010°18'0 0.0
2014-Sep-26 09:33N 43°34' E 010°18'0 0.0
2014-Sep-26 08:33N 43°34' E 010°18'0 0.0
2014-Sep-26 07:33N 43°34' E 010°18'0 0.0
2014-Sep-26 06:33N 43°34' E 010°18'0 0.0
2014-Sep-26 05:33N 43°34' E 010°18'3 3.4
2014-Sep-26 04:33N 43°32' E 010°16'4 4.0
2014-Sep-26 03:33N 43°28' E 010°13'1313.2
2014-Sep-26 02:33N 43°15' E 010°09'1414.3
2014-Sep-26 01:33N 43°01' E 010°06'  
2014-Sep-23 10:17N 39°04' E 009°48'811.2
2014-Sep-23 09:33N 39°01' E 009°39'1110.7
2014-Sep-23 08:33N 39°01' E 009°25'1211.9
2014-Sep-23 07:34N 39°06' E 009°11'8 8.4
2014-Sep-23 06:33N 39°13' E 009°04'0 0.0
2014-Sep-23 05:33N 39°13' E 009°04'0 0.0
2014-Sep-23 04:33N 39°13' E 009°04'0 0.0
2014-Sep-23 03:33N 39°13' E 009°04'0 0.0
2014-Sep-23 02:33N 39°13' E 009°04'0 0.0
2014-Sep-23 01:33N 39°13' E 009°04'0 0.0
2014-Sep-23 00:33N 39°13' E 009°04'0 0.0
2014-Sep-22 23:33N 39°13' E 009°04'0 0.0
2014-Sep-22 22:33N 39°13' E 009°04'0 0.0
2014-Sep-22 21:33N 39°13' E 009°04'0 0.0
2014-Sep-22 20:33N 39°13' E 009°04'0 0.0
2014-Sep-22 19:33N 39°13' E 009°04'0 0.0
2014-Sep-22 18:33N 39°13' E 009°04'0 0.0
2014-Sep-22 17:33N 39°13' E 009°04'0 0.0
2014-Sep-22 16:33N 39°13' E 009°04'0 0.0
2014-Sep-22 15:33N 39°13' E 009°04'0 0.0
2014-Sep-22 14:30N 39°13' E 009°04'0 0.0
2014-Sep-22 13:33N 39°13' E 009°04'0 0.0
2014-Sep-22 12:33N 39°13' E 009°04'0 0.0
2014-Sep-22 11:33N 39°13' E 009°04'0 0.0
2014-Sep-22 10:33N 39°13' E 009°04'0 0.0
2014-Sep-22 09:33N 39°13' E 009°04'0 0.0
2014-Sep-22 08:33N 39°13' E 009°04'0 0.0
2014-Sep-22 07:33N 39°13' E 009°04'0 0.0
2014-Sep-22 06:33N 39°13' E 009°04'0 0.0
2014-Sep-22 05:33N 39°13' E 009°04'0 0.3
2014-Sep-22 04:33N 39°13' E 009°04'8 7.7
2014-Sep-22 03:34N 39°05' E 009°07'1413.9
2014-Sep-22 02:33N 38°53' E 008°60'1514.8
2014-Sep-22 01:33N 38°49' E 008°41'1514.4
2014-Sep-22 00:29N 38°45' E 008°23'1414.2
2014-Sep-21 23:32N 38°41' E 008°06'2814.2
2014-Sep-21 21:32N 38°33' E 007°31'7614.4
2014-Sep-21 16:13N 38°12' E 005°57'1014.3
2014-Sep-21 15:33N 38°10' E 005°46'1414.4
2014-Sep-21 14:33N 38°06' E 005°28'2114.8
2014-Sep-21 13:10N 38°01' E 005°03'1014.9
2014-Sep-21 12:29N 37°58' E 004°50'1414.9
2014-Sep-21 11:33N 37°53' E 004°34'1514.6
2014-Sep-21 10:33N 37°49' E 004°16'1714.8
2014-Sep-21 09:25N 37°45' E 003°55'1314.8
2014-Sep-21 08:33N 37°41' E 003°40'1514.7
2014-Sep-21 07:33N 37°37' E 003°22'  

Dump ship's entire track history